createdAt,value
2022-12-16T00:01:13.958Z,95.37
2022-12-16T00:03:46.656Z,92.97
2022-12-16T00:06:13.773Z,92.70
2022-12-16T00:08:44.072Z,85.50
2022-12-16T00:11:11.354Z,81.00
2022-12-16T00:13:40.495Z,84.90
2022-12-16T00:16:13.980Z,88.77
2022-12-16T00:18:41.349Z,82.53
2022-12-16T00:21:12.603Z,80.03
2022-12-16T00:23:41.841Z,78.73
2022-12-16T00:26:10.508Z,70.43
2022-12-16T00:28:39.353Z,79.90
2022-12-16T00:31:07.101Z,72.97
2022-12-16T00:33:34.594Z,60.77
2022-12-16T00:36:02.024Z,63.03
2022-12-16T00:38:29.269Z,65.73
2022-12-16T00:40:56.463Z,69.50
2022-12-16T00:43:23.706Z,63.63
2022-12-16T00:45:51.960Z,65.07
2022-12-16T00:48:23.208Z,69.23
2022-12-16T00:50:55.139Z,72.37
2022-12-16T00:53:24.757Z,61.73
2022-12-16T00:56:01.215Z,58.70
2022-12-16T00:58:28.278Z,62.97
2022-12-16T01:00:55.372Z,57.67
2022-12-16T01:03:22.745Z,58.77
2022-12-16T01:05:50.142Z,54.87
2022-12-16T01:08:17.767Z,52.37
2022-12-16T01:10:55.636Z,48.17
2022-12-16T01:13:25.150Z,42.10
2022-12-16T01:15:52.904Z,53.10
2022-12-16T01:18:20.201Z,43.03
2022-12-16T01:20:47.298Z,35.07
2022-12-16T01:23:14.384Z,35.07
2022-12-16T01:25:41.455Z,35.70
2022-12-16T01:28:08.802Z,33.50
2022-12-16T01:30:36.245Z,34.97
2022-12-16T01:33:03.432Z,32.80
2022-12-16T01:38:20.667Z,28.60
2022-12-16T01:40:47.702Z,27.33
2022-12-16T01:43:24.293Z,24.17
2022-12-16T01:45:53.404Z,23.73
2022-12-16T01:48:34.257Z,20.27
2022-12-16T01:51:16.006Z,16.80
2022-12-16T01:53:45.013Z,18.70
2022-12-16T01:56:16.378Z,19.87
2022-12-16T01:58:45.167Z,15.73
2022-12-16T02:01:14.851Z,16.97
2022-12-16T02:03:42.457Z,14.80
2022-12-16T02:06:09.772Z,18.33
2022-12-16T02:08:36.852Z,16.57
2022-12-16T02:11:11.592Z,16.50
2022-12-16T02:13:41.387Z,15.40
2022-12-16T02:16:21.219Z,16.90
2022-12-16T02:19:18.094Z,15.80
2022-12-16T02:21:52.054Z,17.03
2022-12-16T02:24:36.834Z,15.73
2022-12-16T02:27:35.950Z,14.77
2022-12-16T02:30:29.713Z,16.67
2022-12-16T02:33:22.326Z,17.13
2022-12-16T02:36:10.879Z,18.07
2022-12-16T02:39:24.219Z,15.23
2022-12-16T02:42:46.161Z,13.50
2022-12-16T02:45:19.830Z,15.07
2022-12-16T02:47:47.528Z,13.80
2022-12-16T02:50:30.715Z,15.53
2022-12-16T02:52:59.775Z,14.33
2022-12-16T02:56:01.035Z,13.27
2022-12-16T02:59:02.025Z,13.80
2022-12-16T03:01:42.237Z,15.47
2022-12-16T03:04:41.191Z,14.67
2022-12-16T03:07:15.515Z,14.03
2022-12-16T03:09:45.723Z,13.83
2022-12-16T03:12:17.549Z,14.07
2022-12-16T03:14:49.854Z,14.43
2022-12-16T03:17:19.547Z,14.73
2022-12-16T03:19:57.469Z,16.47
2022-12-16T03:22:34.222Z,15.13
2022-12-16T03:25:01.474Z,11.87
2022-12-16T03:27:52.988Z,13.57
2022-12-16T03:30:33.444Z,14.10
2022-12-16T03:33:39.574Z,16.10
2022-12-16T03:36:22.126Z,14.47
2022-12-16T03:38:51.111Z,13.77
2022-12-16T03:41:20.829Z,13.57
2022-12-16T03:43:50.161Z,14.97
2022-12-16T03:46:18.355Z,15.70
2022-12-16T03:48:51.223Z,15.53
2022-12-16T03:51:20.004Z,13.17
2022-12-16T03:53:47.198Z,14.83
2022-12-16T03:56:14.322Z,18.23
2022-12-16T03:58:41.502Z,14.10
2022-12-16T04:01:10.140Z,15.90
2022-12-16T04:03:38.261Z,13.70
2022-12-16T04:06:06.274Z,13.97
2022-12-16T04:08:33.309Z,15.37
2022-12-16T04:11:18.966Z,14.93
2022-12-16T04:14:04.570Z,16.63
2022-12-16T04:16:50.540Z,18.25
2022-12-16T04:19:45.667Z,14.20
2022-12-16T04:23:01.880Z,16.97
2022-12-16T04:25:35.826Z,14.30
2022-12-16T04:28:03.455Z,12.50
2022-12-16T04:30:34.877Z,13.43
2022-12-16T04:33:25.393Z,13.17
2022-12-16T04:36:11.069Z,13.00
2022-12-16T04:38:57.068Z,12.48
2022-12-16T04:41:42.817Z,11.40
2022-12-16T04:44:29.149Z,14.57
2022-12-16T04:50:03.130Z,11.87
2022-12-16T04:52:48.609Z,13.75
2022-12-16T04:55:34.241Z,13.07
2022-12-16T04:58:21.423Z,12.98
2022-12-16T05:01:08.571Z,11.67
2022-12-16T05:04:01.883Z,13.73
2022-12-16T05:06:47.452Z,13.27
2022-12-16T05:09:32.713Z,14.30
2022-12-16T05:12:18.074Z,12.93
2022-12-16T05:15:03.366Z,13.00
2022-12-16T05:17:49.214Z,13.40
2022-12-16T05:20:35.317Z,14.40
2022-12-16T05:26:06.702Z,12.30
2022-12-16T05:28:52.250Z,12.45
2022-12-16T05:31:38.215Z,14.68
2022-12-16T05:34:24.041Z,14.18
2022-12-16T05:37:09.463Z,15.15
2022-12-16T05:39:55.371Z,12.68
2022-12-16T05:42:41.012Z,15.35
2022-12-16T05:45:27.119Z,13.45
2022-12-16T05:50:58.295Z,14.17
2022-12-16T05:53:44.086Z,17.27
2022-12-16T05:56:29.324Z,14.80
2022-12-16T05:59:15.002Z,18.05
2022-12-16T06:02:00.620Z,17.83
2022-12-16T06:04:46.483Z,14.55
2022-12-16T06:07:32.360Z,15.88
2022-12-16T06:10:18.059Z,16.02
2022-12-16T06:13:06.816Z,14.43
2022-12-16T06:15:52.908Z,15.43
2022-12-16T06:18:38.628Z,13.70
2022-12-16T06:21:24.176Z,15.00
2022-12-16T06:24:09.479Z,14.88
2022-12-16T06:26:55.056Z,14.98
2022-12-16T06:29:41.130Z,16.20
2022-12-16T06:32:26.958Z,13.88
2022-12-16T06:35:12.242Z,16.27
2022-12-16T06:37:58.026Z,14.60
2022-12-16T06:41:00.538Z,14.82
2022-12-16T06:43:46.403Z,17.73
2022-12-16T06:46:32.151Z,15.77
2022-12-16T06:49:18.118Z,17.25
2022-12-16T06:52:03.747Z,19.50
2022-12-16T06:54:49.330Z,19.20
2022-12-16T06:57:35.204Z,17.15
2022-12-16T07:00:21.294Z,15.25
2022-12-16T07:03:07.045Z,18.95
2022-12-16T07:05:52.626Z,19.95
2022-12-16T07:08:38.536Z,22.95
2022-12-16T07:11:24.613Z,23.23
2022-12-16T07:14:10.259Z,19.75
2022-12-16T07:16:55.776Z,18.65
2022-12-16T07:19:41.843Z,22.95
2022-12-16T07:22:27.458Z,22.45
2022-12-16T07:25:13.188Z,20.35
2022-12-16T07:27:59.080Z,21.38
2022-12-16T07:30:48.484Z,21.87
2022-12-16T07:36:20.125Z,23.27
2022-12-16T07:39:05.577Z,22.98
2022-12-16T07:41:51.397Z,23.73
2022-12-16T07:44:37.105Z,24.50
2022-12-16T07:47:22.912Z,31.23
2022-12-16T07:50:08.637Z,31.60
2022-12-16T07:52:54.357Z,24.80
2022-12-16T07:55:41.278Z,26.33
2022-12-16T07:58:28.372Z,23.73
2022-12-16T08:01:13.775Z,28.07
2022-12-16T08:03:59.653Z,27.40
2022-12-16T08:06:59.275Z,27.13
2022-12-16T08:09:45.359Z,26.30
2022-12-16T08:12:31.464Z,23.20
2022-12-16T08:15:16.931Z,26.27
2022-12-16T08:18:10.762Z,27.40
2022-12-16T08:20:56.627Z,20.23
2022-12-16T08:23:42.708Z,25.88
2022-12-16T08:26:28.272Z,25.30
2022-12-16T08:29:42.605Z,30.77
2022-12-16T08:32:20.302Z,24.30
2022-12-16T08:35:05.761Z,24.60
2022-12-16T08:37:55.104Z,27.50
2022-12-16T08:40:41.218Z,23.13
2022-12-16T08:43:26.973Z,24.42
2022-12-16T08:46:13.309Z,18.80
2022-12-16T08:48:59.351Z,22.80
2022-12-16T08:51:45.467Z,21.95
2022-12-16T08:54:31.310Z,24.17
2022-12-16T08:57:17.807Z,24.88
2022-12-16T09:00:03.752Z,27.27
2022-12-16T09:02:50.300Z,29.20
2022-12-16T09:05:36.998Z,27.43
2022-12-16T09:08:23.464Z,31.23
2022-12-16T09:11:08.844Z,36.63
2022-12-16T09:13:54.188Z,32.58
2022-12-16T09:16:40.628Z,36.38
2022-12-16T09:19:26.664Z,34.97
2022-12-16T09:22:12.280Z,33.20
2022-12-16T09:24:57.951Z,34.83
2022-12-16T09:27:43.488Z,30.48
2022-12-16T09:30:29.562Z,28.00
2022-12-16T09:33:35.607Z,33.55
2022-12-16T09:36:21.667Z,33.83
2022-12-16T09:39:07.100Z,27.67
2022-12-16T09:42:55.553Z,37.05
2022-12-16T09:45:59.378Z,34.63
2022-12-16T09:49:06.769Z,34.90
2022-12-16T09:51:54.183Z,33.97
2022-12-16T09:54:44.066Z,37.50
2022-12-16T09:57:30.066Z,39.07
2022-12-16T10:00:25.172Z,37.13
2022-12-16T10:03:11.085Z,39.37
2022-12-16T10:06:24.475Z,49.45
2022-12-16T10:09:24.398Z,50.83
2022-12-16T10:12:40.673Z,56.93
2022-12-16T10:16:10.769Z,48.43
2022-12-16T10:19:24.298Z,53.43
2022-12-16T10:22:37.639Z,55.37
2022-12-16T10:25:37.524Z,56.83
2022-12-16T10:28:43.313Z,54.10
2022-12-16T10:31:35.684Z,64.37
2022-12-16T10:34:24.189Z,63.70
2022-12-16T10:37:14.215Z,58.57
2022-12-16T10:40:08.974Z,61.20
2022-12-16T10:43:05.000Z,53.13
2022-12-16T10:46:05.555Z,66.70
2022-12-16T10:48:56.507Z,53.90
2022-12-16T10:51:46.609Z,52.17
2022-12-16T10:55:00.642Z,48.63
2022-12-16T10:58:14.463Z,49.47
2022-12-16T11:01:07.585Z,49.87
2022-12-16T11:03:57.077Z,56.20
2022-12-16T11:07:00.346Z,46.50
2022-12-16T11:09:50.568Z,49.07
2022-12-16T11:12:39.111Z,50.43
2022-12-16T11:15:51.122Z,47.43
2022-12-16T11:18:41.477Z,46.07
2022-12-16T11:21:38.663Z,36.57
2022-12-16T11:24:38.919Z,37.23
2022-12-16T11:27:45.933Z,34.10
2022-12-16T11:30:40.803Z,38.70
2022-12-16T11:33:46.609Z,39.20
2022-12-16T11:36:43.393Z,36.47
2022-12-16T11:39:40.984Z,36.10
2022-12-16T11:42:38.594Z,30.93
2022-12-16T11:45:31.363Z,37.20
2022-12-16T11:48:58.092Z,35.10
2022-12-16T11:51:56.786Z,29.07
2022-12-16T11:54:47.832Z,33.13
2022-12-16T11:57:43.405Z,32.40
2022-12-16T12:00:38.729Z,31.43
2022-12-16T12:03:29.639Z,31.27
2022-12-16T12:06:58.238Z,30.57
2022-12-16T12:09:46.245Z,30.77
2022-12-16T12:13:15.098Z,29.67
2022-12-16T12:16:16.197Z,33.20
2022-12-16T12:19:08.117Z,31.27
2022-12-16T12:22:20.856Z,33.63
2022-12-16T12:25:22.362Z,34.00
2022-12-16T12:28:53.474Z,33.83
2022-12-16T12:32:09.064Z,33.73
2022-12-16T12:35:26.347Z,40.23
2022-12-16T12:38:46.007Z,30.02
2022-12-16T12:42:18.209Z,34.40
2022-12-16T12:45:15.648Z,31.80
2022-12-16T12:48:22.092Z,31.60
2022-12-16T12:51:38.913Z,33.72
2022-12-16T12:54:54.612Z,30.55
2022-12-16T12:57:45.144Z,31.23
2022-12-16T13:00:44.500Z,33.50
2022-12-16T13:04:15.207Z,38.73
2022-12-16T13:07:01.602Z,33.70
2022-12-16T13:09:57.102Z,34.53
2022-12-16T13:12:50.721Z,33.15
2022-12-16T13:15:57.652Z,35.20
2022-12-16T13:18:47.897Z,39.37
2022-12-16T13:21:56.161Z,39.83
2022-12-16T13:24:41.904Z,38.00
2022-12-16T13:27:35.448Z,34.25
2022-12-16T13:30:44.037Z,34.17
2022-12-16T13:33:45.254Z,36.17
2022-12-16T13:36:33.435Z,37.70
2022-12-16T13:39:40.229Z,33.20
2022-12-16T13:43:07.106Z,37.53
2022-12-16T13:46:00.336Z,40.30
2022-12-16T13:48:58.350Z,38.20
2022-12-16T13:51:56.014Z,40.13
2022-12-16T13:54:53.184Z,39.20
2022-12-16T13:57:43.525Z,42.53
2022-12-16T14:00:40.151Z,43.57
2022-12-16T14:03:57.246Z,46.60
2022-12-16T14:06:46.210Z,43.67
2022-12-16T14:10:02.274Z,44.43
2022-12-16T14:13:18.983Z,49.10
2022-12-16T14:16:17.972Z,47.07
2022-12-16T14:19:40.015Z,47.37
2022-12-16T14:23:03.370Z,51.73
2022-12-16T14:25:49.989Z,46.27
2022-12-16T14:28:52.145Z,50.00
2022-12-16T14:31:54.558Z,50.27
2022-12-16T14:34:50.558Z,50.93
2022-12-16T14:37:55.628Z,51.53
2022-12-16T14:40:50.511Z,51.30
2022-12-16T14:43:41.124Z,52.77
2022-12-16T14:47:06.713Z,54.73
2022-12-16T14:49:52.429Z,59.27
2022-12-16T14:52:46.406Z,54.15
2022-12-16T14:55:51.644Z,55.23
2022-12-16T14:58:43.155Z,58.00
2022-12-16T15:01:43.442Z,52.70
2022-12-16T15:04:39.250Z,55.67
2022-12-16T15:07:31.740Z,56.42
2022-12-16T15:10:19.694Z,63.13
2022-12-16T15:13:07.651Z,64.07
2022-12-16T15:16:03.725Z,68.67
2022-12-16T15:19:01.240Z,59.05
2022-12-16T15:21:47.228Z,68.53
2022-12-16T15:24:39.706Z,65.22
2022-12-16T15:27:40.369Z,73.63
2022-12-16T15:30:58.716Z,64.70
2022-12-16T15:33:47.783Z,67.97
2022-12-16T15:36:49.594Z,70.00
2022-12-16T15:39:44.046Z,71.93
2022-12-16T15:42:49.650Z,79.90
2022-12-16T15:45:50.852Z,72.73
2022-12-16T15:48:48.189Z,73.80
2022-12-16T15:51:47.461Z,72.97
2022-12-16T15:54:43.521Z,70.07
2022-12-16T15:57:51.486Z,69.68
2022-12-16T16:00:57.584Z,65.77
2022-12-16T16:03:50.417Z,73.57
2022-12-16T16:06:44.939Z,71.13
2022-12-16T16:09:38.664Z,79.20
2022-12-16T16:12:24.456Z,72.23
2022-12-16T16:15:10.154Z,74.00
2022-12-16T16:18:03.623Z,80.97
2022-12-16T16:20:49.211Z,77.30
2022-12-16T16:23:35.137Z,76.10
2022-12-16T16:29:07.311Z,83.40
2022-12-16T16:31:53.201Z,75.28
2022-12-16T16:34:38.914Z,77.05
2022-12-16T16:37:33.454Z,84.25
2022-12-16T16:40:30.192Z,76.00
2022-12-16T16:43:15.790Z,92.53
2022-12-16T16:46:01.416Z,86.50
2022-12-16T16:48:47.860Z,76.15
2022-12-16T16:51:33.585Z,76.83
2022-12-16T16:54:19.207Z,92.65
2022-12-16T16:57:05.025Z,86.65
2022-12-16T16:59:50.495Z,84.60
2022-12-16T17:02:43.058Z,87.90
2022-12-16T17:05:30.534Z,89.23
2022-12-16T17:08:16.261Z,93.20
2022-12-16T17:11:02.314Z,92.93
2022-12-16T17:13:48.253Z,87.47
2022-12-16T17:16:33.902Z,90.88
2022-12-16T17:19:20.735Z,90.18
2022-12-16T17:22:06.614Z,88.63
2022-12-16T17:24:54.308Z,90.55
2022-12-16T17:27:44.298Z,87.03
2022-12-16T17:30:47.425Z,81.37
2022-12-16T17:33:37.511Z,83.23
2022-12-16T17:36:28.550Z,90.90
2022-12-16T17:39:17.552Z,93.60
2022-12-16T17:42:03.690Z,90.63
2022-12-16T17:47:35.836Z,96.37
2022-12-16T17:50:22.942Z,86.07
2022-12-16T17:53:13.831Z,95.43
2022-12-16T17:55:59.390Z,97.07
2022-12-16T17:58:54.350Z,98.28
2022-12-16T18:01:40.336Z,98.70
2022-12-16T18:07:12.048Z,92.30
2022-12-16T18:09:57.955Z,88.18
2022-12-16T18:12:44.065Z,87.43
2022-12-16T18:18:16.005Z,100.78
2022-12-16T18:21:02.020Z,101.53
2022-12-16T18:26:38.234Z,90.80
2022-12-16T18:29:24.333Z,94.97
2022-12-16T18:34:56.331Z,94.73
2022-12-16T18:37:42.582Z,100.05
2022-12-16T18:43:15.278Z,96.15
2022-12-16T18:46:01.873Z,93.53
2022-12-16T18:48:49.640Z,99.17
2022-12-16T18:51:35.882Z,100.03
2022-12-16T18:57:08.019Z,92.97
2022-12-16T18:59:54.079Z,95.18
2022-12-16T19:02:42.984Z,96.13
2022-12-16T19:05:29.380Z,101.33
2022-12-16T19:08:15.574Z,88.90
2022-12-16T19:11:18.243Z,88.75
2022-12-16T19:14:04.109Z,97.67
2022-12-16T19:16:50.194Z,89.80
2022-12-16T19:22:25.263Z,98.47
2022-12-16T19:25:11.877Z,93.37
2022-12-16T19:27:58.277Z,86.10
2022-12-16T19:30:46.794Z,82.13
2022-12-16T19:33:32.817Z,86.65
2022-12-16T19:36:18.708Z,92.95
2022-12-16T19:39:07.516Z,90.57
2022-12-16T19:41:53.295Z,90.63
2022-12-16T19:44:39.960Z,89.85
2022-12-16T19:47:25.683Z,88.73
2022-12-16T19:50:11.809Z,94.80
2022-12-16T19:52:58.474Z,82.10
2022-12-16T19:55:44.935Z,95.25
2022-12-16T19:58:31.035Z,88.93
2022-12-16T20:01:16.970Z,98.63
2022-12-16T20:04:03.195Z,91.93
2022-12-16T20:06:49.869Z,93.37
2022-12-16T20:09:35.620Z,91.47
2022-12-16T20:12:21.663Z,90.18
2022-12-16T20:15:07.900Z,95.32
2022-12-16T20:20:42.572Z,90.70
2022-12-16T20:23:28.643Z,92.63
2022-12-16T20:26:17.031Z,91.47
2022-12-16T20:29:03.013Z,88.50
2022-12-16T20:31:50.045Z,93.95
2022-12-16T20:34:36.179Z,86.97
2022-12-16T20:37:22.575Z,87.07
2022-12-16T20:40:08.593Z,93.40
2022-12-16T20:42:58.323Z,93.17
2022-12-16T20:45:44.296Z,88.82
2022-12-16T20:48:35.257Z,87.57
2022-12-16T20:51:26.599Z,90.47
2022-12-16T20:54:13.662Z,87.33
2022-12-16T20:57:00.001Z,92.90
2022-12-16T20:59:45.605Z,90.20
2022-12-16T21:02:33.887Z,88.88
2022-12-16T21:05:21.971Z,92.30
2022-12-16T21:08:07.776Z,89.00
2022-12-16T21:11:03.400Z,80.73
2022-12-16T21:16:36.295Z,95.55
2022-12-16T21:19:29.404Z,93.00
2022-12-16T21:22:18.809Z,95.13
2022-12-16T21:25:05.011Z,91.47
2022-12-16T21:30:37.938Z,90.13
2022-12-16T21:33:23.592Z,89.17
2022-12-16T21:36:13.287Z,94.47
2022-12-16T21:38:58.721Z,91.60
2022-12-16T21:41:44.360Z,91.25
2022-12-16T21:44:29.941Z,98.35
2022-12-16T21:47:15.536Z,95.38
2022-12-16T21:50:01.754Z,93.82
2022-12-16T21:52:47.412Z,92.80
2022-12-16T21:55:33.082Z,88.65
2022-12-16T21:58:18.691Z,98.25
2022-12-16T22:01:11.547Z,92.07
2022-12-16T22:04:02.014Z,92.23
2022-12-16T22:06:49.030Z,101.70
2022-12-16T22:09:35.585Z,92.57
2022-12-16T22:12:21.233Z,92.47
2022-12-16T22:15:06.800Z,93.03
2022-12-16T22:17:58.018Z,95.57
2022-12-16T22:20:44.270Z,93.47
2022-12-16T22:23:29.911Z,93.53
2022-12-16T22:26:20.069Z,88.97
2022-12-16T22:29:06.074Z,87.33
2022-12-16T22:31:51.594Z,84.88
2022-12-16T22:34:37.740Z,93.55
2022-12-16T22:37:23.576Z,94.53
2022-12-16T22:40:09.311Z,88.57
2022-12-16T22:42:56.297Z,94.70
2022-12-16T22:45:42.269Z,90.90
2022-12-16T22:48:31.106Z,93.68
2022-12-16T22:51:16.644Z,93.33
2022-12-16T22:54:02.470Z,86.13
2022-12-16T22:56:48.565Z,86.82
2022-12-16T22:59:34.214Z,89.20
2022-12-16T23:02:20.017Z,95.65
2022-12-16T23:05:05.922Z,84.15
2022-12-16T23:07:51.836Z,93.45
2022-12-16T23:10:37.744Z,96.30
2022-12-16T23:13:23.316Z,93.13
2022-12-16T23:16:09.118Z,88.43
2022-12-16T23:18:56.456Z,87.73
2022-12-16T23:21:42.501Z,80.47
2022-12-16T23:24:30.110Z,85.30
2022-12-16T23:27:16.046Z,91.57
2022-12-16T23:30:01.467Z,94.90
2022-12-16T23:32:47.314Z,82.70
2022-12-16T23:35:33.001Z,82.50
2022-12-16T23:38:25.506Z,88.18
2022-12-16T23:41:18.355Z,81.93
2022-12-16T23:44:04.415Z,85.37
2022-12-16T23:49:35.341Z,82.60
2022-12-16T23:52:20.935Z,82.97
2022-12-16T23:55:06.536Z,84.35
2022-12-16T23:57:52.697Z,89.93
